sensor_id;sensor_type;location;lat;lon;timestamp;pressure;altitude;pressure_sealevel;temperature;humidity
54876;BME280;40764;48.472;8.166;2023-02-21T00:05:47;98826.13;;;2.47;95.84
54876;BME280;40764;48.472;8.166;2023-02-21T00:12:06;98820.72;;;2.47;96.31
54876;BME280;40764;48.472;8.166;2023-02-21T00:18:25;98817.53;;;2.38;96.75
54876;BME280;40764;48.472;8.166;2023-02-21T00:24:44;98810.13;;;2.34;96.12
54876;BME280;40764;48.472;8.166;2023-02-21T00:31:04;98810.13;;;2.34;96.39
54876;BME280;40764;48.472;8.166;2023-02-21T00:37:22;98801.78;;;2.35;96.40
54876;BME280;40764;48.472;8.166;2023-02-21T00:43:41;98806.44;;;2.28;96.34
54876;BME280;40764;48.472;8.166;2023-02-21T00:50:00;98800.84;;;2.11;96.55
54876;BME280;40764;48.472;8.166;2023-02-21T00:56:19;98795.00;;;2.14;97.50
54876;BME280;40764;48.472;8.166;2023-02-21T01:02:38;98787.50;;;2.16;96.94
54876;BME280;40764;48.472;8.166;2023-02-21T01:08:57;98782.56;;;2.13;96.35
54876;BME280;40764;48.472;8.166;2023-02-21T01:15:16;98781.50;;;2.14;96.80
54876;BME280;40764;48.472;8.166;2023-02-21T01:21:35;98777.72;;;2.04;96.55
54876;BME280;40764;48.472;8.166;2023-02-21T01:27:54;98781.22;;;2.04;96.69
54876;BME280;40764;48.472;8.166;2023-02-21T01:34:13;98775.44;;;2.01;96.48
54876;BME280;40764;48.472;8.166;2023-02-21T01:40:32;98770.66;;;2.03;96.58
54876;BME280;40764;48.472;8.166;2023-02-21T01:46:51;98767.34;;;2.01;95.88
54876;BME280;40764;48.472;8.166;2023-02-21T01:53:16;98764.97;;;2.11;96.00
54876;BME280;40764;48.472;8.166;2023-02-21T01:59:36;98755.91;;;1.87;96.59
54876;BME280;40764;48.472;8.166;2023-02-21T02:05:58;98752.16;;;1.88;97.28
54876;BME280;40764;48.472;8.166;2023-02-21T02:12:43;98748.28;;;1.84;97.16
54876;BME280;40764;48.472;8.166;2023-02-21T02:25:24;98750.88;;;1.72;97.47
54876;BME280;40764;48.472;8.166;2023-02-21T02:38:22;98734.56;;;1.85;96.87
54876;BME280;40764;48.472;8.166;2023-02-21T02:44:29;98737.94;;;1.81;96.66
54876;BME280;40764;48.472;8.166;2023-02-21T02:50:31;98730.16;;;1.73;97.03
54876;BME280;40764;48.472;8.166;2023-02-21T02:56:32;98718.63;;;1.84;96.78
54876;BME280;40764;48.472;8.166;2023-02-21T03:15:39;98718.94;;;1.76;97.08
54876;BME280;40764;48.472;8.166;2023-02-21T03:21:37;98723.13;;;1.72;96.79
54876;BME280;40764;48.472;8.166;2023-02-21T03:27:39;98708.06;;;1.64;96.93
54876;BME280;40764;48.472;8.166;2023-02-21T03:33:41;98699.53;;;1.67;97.36
54876;BME280;40764;48.472;8.166;2023-02-21T03:39:41;98696.97;;;1.72;97.17
54876;BME280;40764;48.472;8.166;2023-02-21T03:45:41;98702.00;;;1.69;96.95
54876;BME280;40764;48.472;8.166;2023-02-21T03:51:42;98705.00;;;1.61;97.31
54876;BME280;40764;48.472;8.166;2023-02-21T03:57:42;98701.41;;;1.67;97.28
54876;BME280;40764;48.472;8.166;2023-02-21T04:03:42;98705.75;;;1.68;96.91
54876;BME280;40764;48.472;8.166;2023-02-21T04:09:43;98700.50;;;1.73;97.84
54876;BME280;40764;48.472;8.166;2023-02-21T04:15:43;98701.72;;;1.59;97.26
54876;BME280;40764;48.472;8.166;2023-02-21T04:21:44;98694.28;;;1.72;97.62
54876;BME280;40764;48.472;8.166;2023-02-21T04:27:49;98694.00;;;1.62;97.05
54876;BME280;40764;48.472;8.166;2023-02-21T04:33:50;98695.88;;;1.62;97.63
54876;BME280;40764;48.472;8.166;2023-02-21T04:39:50;98691.16;;;1.57;97.80
54876;BME280;40764;48.472;8.166;2023-02-21T04:45:50;98694.09;;;1.55;97.30
54876;BME280;40764;48.472;8.166;2023-02-21T04:51:51;98695.06;;;1.61;98.05
54876;BME280;40764;48.472;8.166;2023-02-21T04:57:51;98695.06;;;1.61;97.46
54876;BME280;40764;48.472;8.166;2023-02-21T05:03:51;98693.88;;;1.57;97.87
54876;BME280;40764;48.472;8.166;2023-02-21T05:09:52;98688.25;;;1.59;97.33
54876;BME280;40764;48.472;8.166;2023-02-21T05:15:52;98691.72;;;1.47;97.97
54876;BME280;40764;48.472;8.166;2023-02-21T05:21:54;98677.47;;;1.40;98.07
54876;BME280;40764;48.472;8.166;2023-02-21T05:27:56;98682.84;;;1.40;97.58
54876;BME280;40764;48.472;8.166;2023-02-21T05:33:57;98686.69;;;1.33;97.38
54876;BME280;40764;48.472;8.166;2023-02-21T05:39:57;98686.59;;;1.39;97.20
54876;BME280;40764;48.472;8.166;2023-02-21T05:45:57;98689.59;;;1.49;97.47
54876;BME280;40764;48.472;8.166;2023-02-21T05:51:58;98688.41;;;1.45;97.22
54876;BME280;40764;48.472;8.166;2023-02-21T05:57:58;98687.97;;;1.48;98.01
54876;BME280;40764;48.472;8.166;2023-02-21T06:03:58;98686.47;;;1.16;97.99
54876;BME280;40764;48.472;8.166;2023-02-21T06:09:59;98677.63;;;1.27;98.32
54876;BME280;40764;48.472;8.166;2023-02-21T06:15:59;98674.81;;;1.15;97.51
54876;BME280;40764;48.472;8.166;2023-02-21T06:21:59;98685.69;;;1.09;98.64
54876;BME280;40764;48.472;8.166;2023-02-21T06:28:00;98680.84;;;1.36;98.60
54876;BME280;40764;48.472;8.166;2023-02-21T06:34:00;98682.34;;;1.50;97.73
54876;BME280;40764;48.472;8.166;2023-02-21T06:40:00;98685.91;;;1.44;97.87
54876;BME280;40764;48.472;8.166;2023-02-21T06:46:02;98682.47;;;1.37;97.39
54876;BME280;40764;48.472;8.166;2023-02-21T06:52:04;98685.50;;;1.47;98.39
54876;BME280;40764;48.472;8.166;2023-02-21T06:58:04;98687.63;;;1.38;98.41
54876;BME280;40764;48.472;8.166;2023-02-21T07:04:04;98696.09;;;1.23;97.50
54876;BME280;40764;48.472;8.166;2023-02-21T07:10:05;98690.41;;;1.32;98.03
54876;BME280;40764;48.472;8.166;2023-02-21T07:16:05;98695.59;;;1.51;99.12
54876;BME280;40764;48.472;8.166;2023-02-21T07:22:06;98685.84;;;1.69;97.71
54876;BME280;40764;48.472;8.166;2023-02-21T07:28:06;98690.03;;;1.83;97.42
54876;BME280;40764;48.472;8.166;2023-02-21T07:34:06;98686.69;;;1.99;97.54
54876;BME280;40764;48.472;8.166;2023-02-21T07:40:08;98693.50;;;2.02;97.11
54876;BME280;40764;48.472;8.166;2023-02-21T07:46:10;98689.66;;;2.09;97.06
54876;BME280;40764;48.472;8.166;2023-02-21T07:52:10;98687.59;;;2.23;96.74
54876;BME280;40764;48.472;8.166;2023-02-21T07:58:10;98693.59;;;2.25;97.96
54876;BME280;40764;48.472;8.166;2023-02-21T08:04:11;98683.66;;;2.37;98.18
54876;BME280;40764;48.472;8.166;2023-02-21T08:10:17;98684.16;;;2.58;98.23
54876;BME280;40764;48.472;8.166;2023-02-21T08:16:18;98683.13;;;2.82;97.72
54876;BME280;40764;48.472;8.166;2023-02-21T08:22:18;98674.81;;;3.07;97.73
54876;BME280;40764;48.472;8.166;2023-02-21T08:28:19;98671.50;;;3.40;97.07
54876;BME280;40764;48.472;8.166;2023-02-21T08:34:19;98672.28;;;3.64;97.14
54876;BME280;40764;48.472;8.166;2023-02-21T08:40:20;98660.84;;;4.02;97.26
54876;BME280;40764;48.472;8.166;2023-02-21T08:46:20;98658.13;;;4.30;97.28
54876;BME280;40764;48.472;8.166;2023-02-21T08:52:20;98659.66;;;4.72;96.22
54876;BME280;40764;48.472;8.166;2023-02-21T08:58:20;98646.00;;;5.00;96.22
54876;BME280;40764;48.472;8.166;2023-02-21T09:04:21;98650.22;;;5.29;95.51
54876;BME280;40764;48.472;8.166;2023-02-21T09:10:21;98646.63;;;5.68;94.47
54876;BME280;40764;48.472;8.166;2023-02-21T09:16:22;98636.38;;;5.92;94.15
54876;BME280;40764;48.472;8.166;2023-02-21T09:22:22;98635.34;;;6.25;93.48
54876;BME280;40764;48.472;8.166;2023-02-21T09:28:23;98620.97;;;6.56;92.76
54876;BME280;40764;48.472;8.166;2023-02-21T09:34:23;98611.69;;;6.84;91.85
54876;BME280;40764;48.472;8.166;2023-02-21T09:40:27;98612.72;;;7.20;91.33
54876;BME280;40764;48.472;8.166;2023-02-21T09:46:38;98594.66;;;7.51;91.43
54876;BME280;40764;48.472;8.166;2023-02-21T09:52:40;98590.44;;;7.86;90.40
54876;BME280;40764;48.472;8.166;2023-02-21T09:58:42;98591.34;;;8.27;87.35
54876;BME280;40764;48.472;8.166;2023-02-21T10:11:24;98573.63;;;8.95;84.51
54876;BME280;40764;48.472;8.166;2023-02-21T10:17:34;98565.63;;;9.35;80.99
54876;BME280;40764;48.472;8.166;2023-02-21T10:23:44;98568.75;;;9.67;77.00
54876;BME280;40764;48.472;8.166;2023-02-21T10:29:50;98566.06;;;10.06;74.96
54876;BME280;40764;48.472;8.166;2023-02-21T10:35:53;98556.88;;;10.36;74.13
54876;BME280;40764;48.472;8.166;2023-02-21T10:41:54;98551.38;;;10.75;73.14
54876;BME280;40764;48.472;8.166;2023-02-21T10:48:00;98546.69;;;11.05;72.30
54876;BME280;40764;48.472;8.166;2023-02-21T10:54:28;98545.16;;;11.41;70.47
54876;BME280;40764;48.472;8.166;2023-02-21T11:00:38;98539.78;;;11.79;69.19
54876;BME280;40764;48.472;8.166;2023-02-21T11:06:49;98523.50;;;12.06;68.40
54876;BME280;40764;48.472;8.166;2023-02-21T11:13:05;98509.22;;;12.42;64.34
54876;BME280;40764;48.472;8.166;2023-02-21T11:19:06;98498.13;;;12.66;64.75
54876;BME280;40764;48.472;8.166;2023-02-21T11:25:30;98484.25;;;12.90;59.97
54876;BME280;40764;48.472;8.166;2023-02-21T11:31:34;98476.13;;;13.12;58.60
54876;BME280;40764;48.472;8.166;2023-02-21T11:37:46;98476.47;;;13.38;56.35
54876;BME280;40764;48.472;8.166;2023-02-21T11:43:50;98459.63;;;13.67;56.82
54876;BME280;40764;48.472;8.166;2023-02-21T11:56:43;98422.44;;;14.06;54.36
54876;BME280;40764;48.472;8.166;2023-02-21T12:03:03;98414.19;;;14.28;53.60
54876;BME280;40764;48.472;8.166;2023-02-21T12:09:25;98403.22;;;14.37;53.84
54876;BME280;40764;48.472;8.166;2023-02-21T12:22:15;98386.25;;;14.66;54.01
54876;BME280;40764;48.472;8.166;2023-02-21T12:28:43;98371.91;;;14.77;54.33
54876;BME280;40764;48.472;8.166;2023-02-21T12:47:19;98336.00;;;15.00;55.00
54876;BME280;40764;48.472;8.166;2023-02-21T12:53:42;98320.50;;;15.12;54.51
54876;BME280;40764;48.472;8.166;2023-02-21T13:05:52;98296.03;;;15.45;53.60
54876;BME280;40764;48.472;8.166;2023-02-21T13:18:08;98276.59;;;15.59;53.63
54876;BME280;40764;48.472;8.166;2023-02-21T13:24:19;98264.44;;;15.60;53.28
54876;BME280;40764;48.472;8.166;2023-02-21T13:30:34;98259.28;;;15.67;53.28
54876;BME280;40764;48.472;8.166;2023-02-21T13:42:37;98248.56;;;15.66;53.95
54876;BME280;40764;48.472;8.166;2023-02-21T13:48:38;98236.59;;;15.62;53.86
54876;BME280;40764;48.472;8.166;2023-02-21T14:01:21;98222.00;;;15.61;53.93
54876;BME280;40764;48.472;8.166;2023-02-21T14:19:48;98208.72;;;15.63;54.14
54876;BME280;40764;48.472;8.166;2023-02-21T14:25:59;98206.25;;;15.70;53.50
54876;BME280;40764;48.472;8.166;2023-02-21T14:38:23;98198.13;;;15.74;51.68
54876;BME280;40764;48.472;8.166;2023-02-21T14:57:53;98177.84;;;15.78;48.91
54876;BME280;40764;48.472;8.166;2023-02-21T15:10:48;98168.06;;;16.28;49.61
54876;BME280;40764;48.472;8.166;2023-02-21T15:23:20;98172.84;;;16.39;47.65
54876;BME280;40764;48.472;8.166;2023-02-21T15:29:28;98161.81;;;16.10;48.63
54876;BME280;40764;48.472;8.166;2023-02-21T15:35:33;98163.31;;;15.52;56.00
54876;BME280;40764;48.472;8.166;2023-02-21T15:41:49;98159.44;;;15.53;56.43
54876;BME280;40764;48.472;8.166;2023-02-21T15:47:50;98159.38;;;14.89;59.13
54876;BME280;40764;48.472;8.166;2023-02-21T16:06:54;98169.56;;;13.13;65.45
54876;BME280;40764;48.472;8.166;2023-02-21T16:12:58;98166.59;;;12.64;67.50
54876;BME280;40764;48.472;8.166;2023-02-21T16:18:59;98163.72;;;12.33;69.03
54876;BME280;40764;48.472;8.166;2023-02-21T16:25:05;98156.75;;;12.27;69.82
54876;BME280;40764;48.472;8.166;2023-02-21T16:31:07;98169.13;;;11.70;71.87
54876;BME280;40764;48.472;8.166;2023-02-21T16:37:15;98168.97;;;11.47;72.30
54876;BME280;40764;48.472;8.166;2023-02-21T16:43:26;98167.59;;;11.17;74.37
54876;BME280;40764;48.472;8.166;2023-02-21T16:49:27;98171.06;;;10.91;74.27
54876;BME280;40764;48.472;8.166;2023-02-21T16:55:28;98173.00;;;10.71;75.05
54876;BME280;40764;48.472;8.166;2023-02-21T17:01:50;98173.50;;;10.36;76.46
54876;BME280;40764;48.472;8.166;2023-02-21T17:07:54;98172.16;;;10.14;76.83
54876;BME280;40764;48.472;8.166;2023-02-21T17:13:59;98175.47;;;9.87;78.02
54876;BME280;40764;48.472;8.166;2023-02-21T17:19:59;98188.88;;;9.60;78.89
54876;BME280;40764;48.472;8.166;2023-02-21T17:26:08;98200.56;;;9.37;80.32
54876;BME280;40764;48.472;8.166;2023-02-21T17:32:11;98196.78;;;9.04;81.36
54876;BME280;40764;48.472;8.166;2023-02-21T17:38:11;98201.75;;;8.91;82.14
54876;BME280;40764;48.472;8.166;2023-02-21T17:44:12;98211.09;;;8.85;82.87
54876;BME280;40764;48.472;8.166;2023-02-21T17:50:12;98212.34;;;8.59;83.29
54876;BME280;40764;48.472;8.166;2023-02-21T17:56:16;98213.00;;;8.41;84.32
54876;BME280;40764;48.472;8.166;2023-02-21T18:02:17;98220.44;;;8.20;85.11
54876;BME280;40764;48.472;8.166;2023-02-21T18:08:19;98227.56;;;8.05;85.13
54876;BME280;40764;48.472;8.166;2023-02-21T18:14:21;98225.47;;;7.87;86.60
54876;BME280;40764;48.472;8.166;2023-02-21T18:20:22;98223.31;;;7.74;88.14
54876;BME280;40764;48.472;8.166;2023-02-21T18:26:23;98230.94;;;7.67;86.85
54876;BME280;40764;48.472;8.166;2023-02-21T18:32:24;98221.72;;;7.63;86.76
54876;BME280;40764;48.472;8.166;2023-02-21T18:38:26;98215.22;;;7.54;87.52
54876;BME280;40764;48.472;8.166;2023-02-21T18:44:26;98206.78;;;7.45;87.55
54876;BME280;40764;48.472;8.166;2023-02-21T18:50:27;98202.72;;;7.22;88.42
54876;BME280;40764;48.472;8.166;2023-02-21T18:56:27;98192.69;;;7.02;88.83
54876;BME280;40764;48.472;8.166;2023-02-21T19:02:30;98184.25;;;6.83;90.11
54876;BME280;40764;48.472;8.166;2023-02-21T19:08:31;98187.78;;;6.79;89.95
54876;BME280;40764;48.472;8.166;2023-02-21T19:14:31;98178.28;;;6.71;90.03
54876;BME280;40764;48.472;8.166;2023-02-21T19:20:32;98173.09;;;6.44;90.73
54876;BME280;40764;48.472;8.166;2023-02-21T19:26:41;98171.97;;;6.35;91.20
54876;BME280;40764;48.472;8.166;2023-02-21T19:32:41;98176.03;;;6.22;91.36
54876;BME280;40764;48.472;8.166;2023-02-21T19:38:42;98179.25;;;6.09;91.83
54876;BME280;40764;48.472;8.166;2023-02-21T19:44:48;98184.97;;;6.08;91.95
54876;BME280;40764;48.472;8.166;2023-02-21T19:50:49;98182.47;;;6.06;91.22
54876;BME280;40764;48.472;8.166;2023-02-21T19:56:49;98185.66;;;5.88;92.08
54876;BME280;40764;48.472;8.166;2023-02-21T20:02:49;98186.13;;;5.75;93.71
54876;BME280;40764;48.472;8.166;2023-02-21T20:08:57;98195.97;;;5.86;93.44
54876;BME280;40764;48.472;8.166;2023-02-21T20:14:57;98194.25;;;5.70;93.08
54876;BME280;40764;48.472;8.166;2023-02-21T20:20:58;98202.34;;;5.59;93.72
54876;BME280;40764;48.472;8.166;2023-02-21T20:27:04;98200.13;;;5.51;93.54
54876;BME280;40764;48.472;8.166;2023-02-21T20:33:15;98206.53;;;5.35;94.18
54876;BME280;40764;48.472;8.166;2023-02-21T20:39:18;98210.31;;;5.34;94.22
54876;BME280;40764;48.472;8.166;2023-02-21T20:45:19;98204.03;;;5.23;93.56
54876;BME280;40764;48.472;8.166;2023-02-21T20:51:30;98195.78;;;5.13;93.71
54876;BME280;40764;48.472;8.166;2023-02-21T20:57:32;98195.56;;;4.83;94.51
54876;BME280;40764;48.472;8.166;2023-02-21T21:03:37;98198.66;;;4.64;97.06
54876;BME280;40764;48.472;8.166;2023-02-21T21:09:39;98194.41;;;4.74;96.35
54876;BME280;40764;48.472;8.166;2023-02-21T21:15:40;98187.94;;;4.80;95.54
54876;BME280;40764;48.472;8.166;2023-02-21T21:21:40;98202.22;;;4.70;95.08
54876;BME280;40764;48.472;8.166;2023-02-21T21:27:42;98197.34;;;4.67;93.93
54876;BME280;40764;48.472;8.166;2023-02-21T21:33:47;98199.31;;;4.50;94.41
54876;BME280;40764;48.472;8.166;2023-02-21T21:39:50;98202.34;;;4.53;94.24
54876;BME280;40764;48.472;8.166;2023-02-21T21:45:54;98190.56;;;4.38;94.82
54876;BME280;40764;48.472;8.166;2023-02-21T21:51:55;98195.59;;;4.29;95.78
54876;BME280;40764;48.472;8.166;2023-02-21T21:57:56;98180.16;;;4.29;95.46
54876;BME280;40764;48.472;8.166;2023-02-21T22:03:57;98181.75;;;4.25;95.52
54876;BME280;40764;48.472;8.166;2023-02-21T22:09:58;98179.06;;;4.25;95.41
54876;BME280;40764;48.472;8.166;2023-02-21T22:15:58;98173.78;;;4.14;95.35
54876;BME280;40764;48.472;8.166;2023-02-21T22:21:58;98165.13;;;4.12;95.07
54876;BME280;40764;48.472;8.166;2023-02-21T22:28:06;98166.72;;;4.08;95.07
54876;BME280;40764;48.472;8.166;2023-02-21T22:34:12;98169.31;;;4.02;95.17
54876;BME280;40764;48.472;8.166;2023-02-21T22:40:34;98161.50;;;3.79;95.79
54876;BME280;40764;48.472;8.166;2023-02-21T22:46:46;98156.72;;;3.86;96.23
54876;BME280;40764;48.472;8.166;2023-02-21T22:52:58;98150.53;;;3.91;96.15
54876;BME280;40764;48.472;8.166;2023-02-21T22:59:05;98138.25;;;3.78;95.80
54876;BME280;40764;48.472;8.166;2023-02-21T23:05:15;98138.09;;;3.68;95.21
54876;BME280;40764;48.472;8.166;2023-02-21T23:11:20;98130.31;;;3.71;95.37
54876;BME280;40764;48.472;8.166;2023-02-21T23:17:22;98133.66;;;3.57;95.46
54876;BME280;40764;48.472;8.166;2023-02-21T23:23:26;98132.91;;;3.61;95.51
54876;BME280;40764;48.472;8.166;2023-02-21T23:29:27;98142.13;;;3.43;95.42
54876;BME280;40764;48.472;8.166;2023-02-21T23:35:28;98126.59;;;3.34;96.44
54876;BME280;40764;48.472;8.166;2023-02-21T23:41:28;98127.94;;;3.53;96.43
54876;BME280;40764;48.472;8.166;2023-02-21T23:47:33;98127.78;;;3.43;95.59
54876;BME280;40764;48.472;8.166;2023-02-21T23:53:36;98133.66;;;3.35;96.43
54876;BME280;40764;48.472;8.166;2023-02-21T23:59:36;98119.38;;;3.39;96.65
